Jonas Ridge, North Carolina
Current Conditions -  °F | °C
As of 5:15 PM on Sunday 23 Nov 2014 (Local Time) from KMRN Reporting Station
Heavy Rain Heavy Rain  
Wind Chill: 39°   Ceiling: 800
Heat Index: 44°   Visibility: 4mi
Dew Point: 44°   Wind: 8mph
Humidity: 100%   Direction: 20°NNE
Pressure: 29.92"   Gusts: NA
Location:  35.97°N, 81.89°W
Report Text: KMRN 232215Z AUTO 02007KT 4SM +RA BKN008 OVC015 06/06 A2992 RMK AO2 P0005 T00640064
Loading
Personal Weather Stations






























Interactive Weather Map New forecast layout! Learn more

10-Day Weather Forecast

Advertisements
Track Severe Weather on mobile